Time;durP1;ratioP1;P1;durP2;ratioP2;P2;SDS_P1;SDS_P2;PMS_P1;PMS_P2;Temp;Humidity;BMP_temperature;BMP_pressure;BME280_temperature;BME280_humidity;BME280_pressure;Samples;Min_cycle;Max_cycle;Signal;HPM_P1;HPM_P2
2022/10/08 00:04:10;;;;;;;0.00;0.00;;;;;;;11.51;100.00;101575.72;10564962;28;20118;-76
2022/10/08 00:09:12;;;;;;;0.22;0.10;;;;;;;11.60;100.00;101570.88;10594954;27;20039;-76
2022/10/08 00:14:14;;;;;;;0.00;0.00;;;;;;;11.66;100.00;101575.38;10568633;27;20071;-76
2022/10/08 00:19:15;;;;;;;1.00;0.20;;;;;;;11.75;100.00;101578.25;10590714;27;20078;-77
2022/10/08 00:24:20;;;;;;;0.47;0.30;;;;;;;11.70;100.00;101580.69;10573849;27;20127;-76
2022/10/08 00:29:21;;;;;;;1.67;0.85;;;;;;;11.68;100.00;101584.91;10575248;27;20138;-77
2022/10/08 00:34:23;;;;;;;0.15;0.13;;;;;;;11.69;100.00;101590.97;10566975;27;20126;-77
2022/10/08 00:39:25;;;;;;;0.38;0.30;;;;;;;11.80;100.00;101588.72;10567665;27;20063;-76
2022/10/08 00:44:45;;;;;;;0.10;0.03;;;;;;;12.01;100.00;101597.19;10575813;27;20047;-77
2022/10/08 00:49:50;;;;;;;0.05;0.05;;;;;;;12.15;100.00;101599.31;10583748;27;20112;-76
2022/10/08 00:54:51;;;;;;;12.57;0.45;;;;;;;12.29;100.00;101605.78;10607557;27;20422;-77
2022/10/08 00:59:53;;;;;;;0.22;0.20;;;;;;;12.35;100.00;101600.78;10552920;28;20135;-78
2022/10/08 01:04:55;;;;;;;0.55;0.30;;;;;;;12.41;100.00;101594.94;10600374;27;20044;-77
2022/10/08 01:10:22;;;;;;;0.13;0.10;;;;;;;12.47;100.00;101596.81;10590874;27;20401;-76
2022/10/08 01:15:31;;;;;;;0.30;0.30;;;;;;;12.46;100.00;101597.66;10587959;27;20053;-77
2022/10/08 01:20:36;;;;;;;2.53;0.52;;;;;;;12.47;100.00;101595.09;10573346;27;20039;-76
2022/10/08 01:26:05;;;;;;;0.10;0.08;;;;;;;12.56;100.00;101594.47;10580985;28;20069;-77
2022/10/08 01:31:14;;;;;;;0.05;0.05;;;;;;;12.52;100.00;101592.66;10573099;28;20100;-77
2022/10/08 01:36:18;;;;;;;0.75;0.10;;;;;;;12.50;100.00;101602.06;10582286;28;20406;-77
2022/10/08 01:41:24;;;;;;;0.25;0.20;;;;;;;12.43;100.00;101607.88;10580371;28;20040;-76
2022/10/08 01:46:29;;;;;;;1.45;0.65;;;;;;;12.45;100.00;101609.69;10557363;28;20464;-77
2022/10/08 01:51:35;;;;;;;5.18;0.60;;;;;;;12.38;100.00;101610.31;10547373;28;20078;-76
2022/10/08 01:56:40;;;;;;;1.75;0.43;;;;;;;12.40;100.00;101620.72;10553294;28;20143;-77
2022/10/08 02:02:00;;;;;;;0.08;0.08;;;;;;;12.45;100.00;101624.31;10570214;28;20496;-77
2022/10/08 02:07:14;;;;;;;0.35;0.25;;;;;;;12.38;100.00;101637.06;10588537;28;20451;-76
2022/10/08 02:12:16;;;;;;;0.30;0.20;;;;;;;12.21;100.00;101664.06;10594890;27;20047;-77
2022/10/08 02:17:34;;;;;;;1.45;0.68;;;;;;;12.09;100.00;101689.53;10544519;28;20047;-76
2022/10/08 02:22:42;;;;;;;0.50;0.35;;;;;;;12.06;100.00;101710.97;10570005;28;20090;-77
2022/10/08 02:27:58;;;;;;;0.00;0.00;;;;;;;12.00;100.00;101783.94;10587570;28;20114;-77
2022/10/08 02:33:09;;;;;;;0.10;0.10;;;;;;;12.00;100.00;101802.03;10587188;28;20433;-77
2022/10/08 02:38:15;;;;;;;0.45;0.32;;;;;;;11.95;100.00;101806.09;10586955;28;20078;-77
2022/10/08 02:43:25;;;;;;;0.65;0.63;;;;;;;11.88;100.00;101810.19;10578777;28;20050;-76
2022/10/08 02:48:30;;;;;;;0.50;0.45;;;;;;;11.82;100.00;101814.25;10579542;28;20039;-77
2022/10/08 02:53:36;;;;;;;0.98;0.90;;;;;;;11.83;100.00;101816.00;10552782;28;20047;-76
2022/10/08 02:58:38;;;;;;;0.52;0.30;;;;;;;11.74;100.00;101822.59;10582363;28;20123;-77
2022/10/08 03:03:46;;;;;;;0.43;0.35;;;;;;;11.70;100.00;101831.06;10557679;28;20040;-77
2022/10/08 03:08:49;;;;;;;0.20;0.20;;;;;;;11.73;100.00;101848.38;10584378;28;20048;-77
2022/10/08 03:13:57;;;;;;;0.47;0.20;;;;;;;11.66;100.00;101846.41;10567057;28;20134;-77
2022/10/08 03:19:01;;;;;;;0.10;0.10;;;;;;;11.63;100.00;101854.91;10552712;27;20063;-77
2022/10/08 03:24:06;;;;;;;0.30;0.30;;;;;;;11.45;100.00;101860.28;10563191;27;20097;-77
2022/10/08 03:29:09;;;;;;;18.38;5.47;;;;;;;11.37;100.00;101872.84;10569408;27;20074;-77
2022/10/08 03:34:10;;;;;;;1.02;0.20;;;;;;;11.34;100.00;101888.25;10583276;28;20048;-77
2022/10/08 03:39:12;;;;;;;0.30;0.20;;;;;;;11.36;100.00;101893.44;10582567;28;20398;-77
2022/10/08 03:44:13;;;;;;;0.32;0.13;;;;;;;11.29;100.00;101905.22;10602003;27;20039;-77
2022/10/08 03:49:15;;;;;;;0.28;0.28;;;;;;;11.32;100.00;101914.81;10590570;27;20040;-77
2022/10/08 03:54:16;;;;;;;0.20;0.20;;;;;;;11.33;100.00;101912.28;10583769;28;20075;-77
2022/10/08 03:59:18;;;;;;;0.55;0.55;;;;;;;11.18;100.00;101909.09;10587187;27;20074;-77
2022/10/08 04:04:19;;;;;;;0.65;0.30;;;;;;;11.08;100.00;101911.31;10567458;28;20070;-76
2022/10/08 04:09:26;;;;;;;0.75;0.35;;;;;;;11.05;100.00;101921.50;10568354;27;20043;-76
2022/10/08 04:14:27;;;;;;;1.00;0.68;;;;;;;11.00;100.00;101920.41;10588473;27;20047;-76
2022/10/08 04:19:29;;;;;;;0.20;0.20;;;;;;;10.92;100.00;101930.44;10582503;28;20044;-76
2022/10/08 04:24:30;;;;;;;0.60;0.32;;;;;;;10.94;100.00;101925.34;10582478;28;20047;-77
2022/10/08 04:29:32;;;;;;;1.02;0.45;;;;;;;11.03;100.00;101938.63;10582487;28;20050;-76
2022/10/08 04:34:33;;;;;;;0.32;0.28;;;;;;;11.11;100.00;101941.47;10564418;28;20135;-76
2022/10/08 04:39:35;;;;;;;0.00;0.00;;;;;;;11.17;100.00;101949.47;10542172;28;20036;-76
2022/10/08 04:44:36;;;;;;;0.20;0.20;;;;;;;11.19;100.00;101955.56;10567682;28;20101;-76
2022/10/08 04:49:38;;;;;;;5.82;1.55;;;;;;;11.26;100.00;101967.91;10564140;28;20039;-76
2022/10/08 04:54:39;;;;;;;1.27;1.17;;;;;;;11.26;100.00;101961.88;10582080;28;20178;-76
2022/10/08 04:59:41;;;;;;;0.40;0.40;;;;;;;11.30;100.00;101963.75;10576622;27;20134;-76
2022/10/08 05:05:03;;;;;;;3.95;0.50;;;;;;;11.25;100.00;101965.25;10553701;28;20156;-76
2022/10/08 05:10:05;;;;;;;0.73;0.50;;;;;;;11.29;100.00;101979.16;10590399;27;20074;-76
2022/10/08 05:15:07;;;;;;;1.17;0.45;;;;;;;11.26;100.00;101982.50;10535977;28;20499;-76
2022/10/08 05:20:08;;;;;;;0.25;0.20;;;;;;;11.31;100.00;101983.56;10580143;28;20046;-76
2022/10/08 05:25:10;;;;;;;0.17;0.17;;;;;;;11.28;100.00;102004.09;10564565;28;20571;-78
2022/10/08 05:30:12;;;;;;;0.50;0.10;;;;;;;11.30;100.00;101999.00;10545412;27;20139;-77
2022/10/08 05:35:13;;;;;;;0.10;0.10;;;;;;;11.29;100.00;102000.69;10607080;27;20082;-77
2022/10/08 05:40:15;;;;;;;1.05;0.70;;;;;;;11.25;100.00;102007.41;10576269;28;20043;-76
2022/10/08 05:45:20;;;;;;;0.70;0.63;;;;;;;11.31;100.00;102009.38;10560647;28;20048;-77
2022/10/08 05:50:21;;;;;;;0.40;0.35;;;;;;;11.26;100.00;102013.47;10588800;28;20114;-78
2022/10/08 05:55:23;;;;;;;0.50;0.20;;;;;;;11.13;100.00;102024.97;10604542;27;20045;-78
2022/10/08 06:00:24;;;;;;;0.43;0.30;;;;;;;11.12;100.00;102038.69;10580065;28;20114;-78
2022/10/08 06:05:26;;;;;;;0.40;0.32;;;;;;;11.04;100.00;102028.06;10592810;27;20477;-76
2022/10/08 06:10:28;;;;;;;0.32;0.32;;;;;;;11.02;100.00;102047.72;10588404;28;20039;-77
2022/10/08 06:15:30;;;;;;;0.98;0.68;;;;;;;11.00;100.00;102054.50;10569993;27;20046;-77
2022/10/08 06:20:35;;;;;;;0.20;0.20;;;;;;;10.94;100.00;102046.53;10580836;27;20042;-77
2022/10/08 06:25:37;;;;;;;0.20;0.20;;;;;;;10.90;100.00;102065.25;10609608;27;20032;-76
2022/10/08 06:30:42;;;;;;;0.35;0.10;;;;;;;10.99;100.00;102070.78;10571317;28;20461;-76
2022/10/08 06:35:43;;;;;;;0.82;0.60;;;;;;;11.11;100.00;102071.34;10574654;28;20039;-77
2022/10/08 06:40:45;;;;;;;0.08;0.08;;;;;;;11.54;100.00;102076.50;10580455;28;20078;-78
2022/10/08 06:45:46;;;;;;;1.75;0.85;;;;;;;11.34;100.00;102079.16;10596771;28;20039;-77
2022/10/08 06:50:57;;;;;;;0.55;0.40;;;;;;;11.10;100.00;102095.38;10540894;28;20078;-76
2022/10/08 06:56:02;;;;;;;0.87;0.77;;;;;;;11.11;100.00;102096.22;10549925;28;20086;-76
2022/10/08 07:07:45;;;;;;;0.45;0.35;;;;;;;11.57;100.00;102117.94;10588826;28;20047;-76
2022/10/08 07:12:47;;;;;;;0.35;0.35;;;;;;;12.14;100.00;102111.63;10561452;28;20398;-77
2022/10/08 07:17:49;;;;;;;0.80;0.43;;;;;;;12.50;100.00;102085.41;10591418;28;20044;-77
2022/10/08 07:22:50;;;;;;;2.65;0.30;;;;;;;12.60;100.00;102055.59;10567551;27;20118;-77
2022/10/08 07:27:52;;;;;;;2.58;1.23;;;;;;;12.93;100.00;102044.69;10587037;27;20047;-77
2022/10/08 07:32:53;;;;;;;0.73;0.40;;;;;;;12.75;100.00;102034.59;10585894;28;20122;-77
2022/10/08 07:37:55;;;;;;;0.93;0.68;;;;;;;13.32;100.00;102026.16;10567090;28;20071;-77
2022/10/08 07:42:56;;;;;;;1.00;0.47;;;;;;;13.85;100.00;102000.22;10585185;28;20035;-77
2022/10/08 07:47:58;;;;;;;0.28;0.22;;;;;;;13.74;100.00;101994.72;10570469;27;20569;-77
2022/10/08 07:53:00;;;;;;;0.15;0.15;;;;;;;14.06;100.00;101944.66;10571491;28;20048;-76
2022/10/08 07:58:02;;;;;;;0.80;0.20;;;;;;;14.44;100.00;101950.88;10555238;28;20082;-78
2022/10/08 08:03:03;;;;;;;0.20;0.10;;;;;;;14.28;100.00;101951.34;10526305;28;20052;-77
2022/10/08 08:08:10;;;;;;;0.90;0.40;;;;;;;14.25;100.00;101954.72;10563646;28;20077;-77
2022/10/08 08:13:12;;;;;;;0.22;0.10;;;;;;;14.89;100.00;101944.28;10566199;28;20039;-77
2022/10/08 08:18:13;;;;;;;0.30;0.20;;;;;;;14.67;100.00;101945.47;10583908;28;20529;-76
2022/10/08 08:23:15;;;;;;;0.00;0.00;;;;;;;14.54;100.00;101941.66;10583902;28;20086;-77
2022/10/08 08:28:16;;;;;;;1.23;0.38;;;;;;;15.08;100.00;101934.34;10548419;28;20051;-78
2022/10/08 08:33:18;;;;;;;0.00;0.00;;;;;;;15.57;100.00;101951.91;10583588;28;20059;-77
2022/10/08 08:38:20;;;;;;;5.28;0.57;;;;;;;15.28;100.00;101946.94;10583128;28;20044;-77
2022/10/08 08:43:22;;;;;;;0.10;0.10;;;;;;;14.82;100.00;101962.28;10564932;28;20118;-77
2022/10/08 08:48:27;;;;;;;0.98;0.30;;;;;;;15.27;100.00;101963.34;10599951;27;20078;-77
2022/10/08 08:53:30;;;;;;;1.08;0.20;;;;;;;15.77;100.00;101963.59;10625693;27;20478;-77
2022/10/08 08:58:57;;;;;;;0.00;0.00;;;;;;;15.58;100.00;101974.44;10603931;27;20046;-77
2022/10/08 09:04:08;;;;;;;2.17;0.45;;;;;;;15.29;100.00;101979.84;10581761;28;20403;-77
2022/10/08 09:09:24;;;;;;;0.20;0.17;;;;;;;15.46;100.00;101973.31;10582444;28;20048;-77
2022/10/08 09:14:44;;;;;;;0.22;0.05;;;;;;;14.74;100.00;101985.41;10564405;28;20035;-76
2022/10/08 09:19:48;;;;;;;0.00;0.00;;;;;;;15.34;100.00;101973.03;10563628;28;20067;-77
2022/10/08 09:24:55;;;;;;;0.10;0.10;;;;;;;15.85;100.00;101977.66;10558219;28;20075;-77
2022/10/08 09:29:57;;;;;;;0.15;0.03;;;;;;;14.42;100.00;102004.44;10595179;28;20035;-77
2022/10/08 09:35:06;;;;;;;0.22;0.08;;;;;;;14.47;100.00;102006.25;10569188;28;20051;-75
2022/10/08 09:40:10;;;;;;;0.00;0.00;;;;;;;15.20;100.00;102002.16;10581214;28;20086;-76
2022/10/08 09:45:32;;;;;;;0.73;0.73;;;;;;;15.02;100.00;102022.44;10563182;28;20054;-78
2022/10/08 09:50:35;;;;;;;0.00;0.00;;;;;;;15.23;100.00;102015.19;10581347;28;20032;-77
2022/10/08 09:55:37;;;;;;;1.10;0.57;;;;;;;16.46;100.00;102013.56;10581503;28;20123;-77
2022/10/08 10:00:38;;;;;;;0.10;0.00;;;;;;;15.45;100.00;102018.28;10581242;28;20119;-77
2022/10/08 10:05:40;;;;;;;0.00;0.00;;;;;;;15.70;100.00;102024.97;10603758;28;20044;-77
2022/10/08 10:10:47;;;;;;;0.00;0.00;;;;;;;14.59;100.00;102036.00;10611414;28;20063;-76
2022/10/08 10:16:02;;;;;;;0.00;0.00;;;;;;;14.64;100.00;102035.25;10597151;28;20047;-76
2022/10/08 10:21:14;;;;;;;2.65;0.25;;;;;;;15.19;100.00;102021.16;10576114;27;20039;-76
2022/10/08 10:26:20;;;;;;;0.10;0.10;;;;;;;16.44;100.00;102017.84;10595124;27;20573;-76
2022/10/08 10:31:45;;;;;;;12.73;0.22;;;;;;;15.97;100.00;102028.16;10590549;27;20375;-76
2022/10/08 10:36:51;;;;;;;0.10;0.00;;;;;;;16.20;100.00;102035.53;10573659;28;20035;-76
2022/10/08 10:42:14;;;;;;;0.15;0.10;;;;;;;16.79;100.00;102022.81;10585910;28;20035;-76
2022/10/08 10:47:20;;;;;;;0.00;0.00;;;;;;;16.54;100.00;102041.44;10587337;28;20089;-76
2022/10/08 10:52:40;;;;;;;0.65;0.20;;;;;;;17.01;100.00;102033.69;10561037;28;20064;-76
2022/10/08 10:57:41;;;;;;;0.05;0.05;;;;;;;16.56;100.00;102037.16;10583286;28;20047;-76
2022/10/08 11:03:14;;;;;;;0.00;0.00;;;;;;;15.62;100.00;102041.19;10616989;27;20096;-76
2022/10/08 11:08:33;;;;;;;0.00;0.00;;;;;;;17.03;100.00;102037.16;10590496;27;20043;-77
2022/10/08 11:13:53;;;;;;;0.00;0.00;;;;;;;16.96;100.00;102044.00;10554762;28;20469;-76
2022/10/08 11:25:47;;;;;;;0.45;0.20;;;;;;;17.41;100.00;102039.53;10585698;28;20047;-75
2022/10/08 11:31:22;;;;;;;0.00;0.00;;;;;;;16.87;100.00;102054.22;10414456;28;20052;-77
2022/10/08 11:36:52;;;;;;;0.00;0.00;;;;;;;16.43;100.00;102047.28;10548973;28;20402;-77
2022/10/08 11:42:13;;;;;;;0.00;0.00;;;;;;;17.02;100.00;102053.63;10585210;28;20040;-77
2022/10/08 11:54:22;;;;;;;0.00;0.00;;;;;;;17.22;100.00;102038.34;10584756;28;20436;-77
2022/10/08 12:00:16;;;;;;;0.10;0.10;;;;;;;18.01;100.00;102036.94;10584237;28;20040;-76
2022/10/08 12:05:21;;;;;;;2.30;0.17;;;;;;;18.22;100.00;102045.88;10559652;28;20050;-76
2022/10/08 12:10:30;;;;;;;1.95;0.20;;;;;;;17.83;100.00;102052.31;10583270;28;20409;-76
2022/10/08 12:15:39;;;;;;;0.10;0.08;;;;;;;17.96;100.00;102043.81;10584006;28;20046;-77
2022/10/08 12:20:42;;;;;;;0.00;0.00;;;;;;;16.85;100.00;102052.44;10583595;28;20475;-76
2022/10/08 12:25:43;;;;;;;0.00;0.00;;;;;;;16.94;100.00;102052.63;10582662;28;20562;-75
2022/10/08 12:30:47;;;;;;;0.00;0.00;;;;;;;15.76;100.00;102063.16;10565104;28;20058;-75
2022/10/08 12:36:11;;;;;;;0.20;0.20;;;;;;;15.52;100.00;102066.06;10564670;28;20566;-75
2022/10/08 12:41:15;;;;;;;0.00;0.00;;;;;;;15.47;100.00;102071.16;10582705;28;20039;-74
2022/10/08 12:46:55;;;;;;;2.47;0.13;;;;;;;16.96;100.00;102077.84;10582543;28;20074;-76
2022/10/08 12:52:06;;;;;;;5.60;0.52;;;;;;;16.75;100.00;102073.06;10582457;28;20097;-76
2022/10/08 12:57:10;;;;;;;0.00;0.00;;;;;;;16.87;100.00;102071.53;10582532;28;20448;-75
2022/10/08 13:03:11;;;;;;;0.00;0.00;;;;;;;17.27;100.00;102070.56;10582240;28;20047;-74
2022/10/08 13:08:29;;;;;;;0.30;0.30;;;;;;;16.91;100.00;102065.56;10487025;28;20083;-75
2022/10/08 13:13:37;;;;;;;0.13;0.05;;;;;;;17.15;100.00;102069.47;10568160;28;20100;-75
2022/10/08 13:18:41;;;;;;;0.00;0.00;;;;;;;17.31;100.00;102074.09;10581969;28;20065;-75
2022/10/08 13:23:43;;;;;;;0.15;0.10;;;;;;;17.76;100.00;102067.84;10567350;28;20537;-76
2022/10/08 13:28:44;;;;;;;0.00;0.00;;;;;;;17.31;100.00;102074.09;10581511;28;20050;-76
2022/10/08 13:34:02;;;;;;;3.20;0.38;;;;;;;16.43;100.00;102081.09;10539626;28;20043;-75
2022/10/08 13:39:04;;;;;;;0.45;0.30;;;;;;;17.67;100.00;102083.34;10572977;28;20051;-76
2022/10/08 13:44:08;;;;;;;0.00;0.00;;;;;;;17.58;98.81;102098.84;10581484;28;20058;-75
2022/10/08 13:49:22;;;;;;;0.00;0.00;;;;;;;16.28;100.00;102117.19;10581473;28;20127;-75
2022/10/08 13:54:26;;;;;;;0.03;0.03;;;;;;;16.58;100.00;102113.47;10631698;27;20119;-74
2022/10/08 13:59:28;;;;;;;0.00;0.00;;;;;;;16.68;97.62;102115.44;10589844;27;20096;-74
2022/10/08 14:04:31;;;;;;;0.00;0.00;;;;;;;16.67;100.00;102116.28;10572025;28;20073;-74
2022/10/08 14:09:33;;;;;;;4.05;0.15;;;;;;;16.42;100.00;102120.97;10589128;28;20031;-75
2022/10/08 14:14:34;;;;;;;0.00;0.00;;;;;;;16.43;100.00;102122.72;10588824;28;20043;-74
2022/10/08 14:19:36;;;;;;;0.00;0.00;;;;;;;16.87;100.00;102121.88;10588641;28;20074;-74
2022/10/08 14:24:38;;;;;;;0.00;0.00;;;;;;;16.49;100.00;102117.66;10588251;28;20044;-74
2022/10/08 14:29:39;;;;;;;0.40;0.20;;;;;;;16.39;100.00;102115.72;10587924;28;20124;-75
2022/10/08 14:34:41;;;;;;;0.30;0.20;;;;;;;16.31;100.00;102119.88;10588120;28;20131;-76
2022/10/08 14:39:42;;;;;;;0.45;0.45;;;;;;;16.32;100.00;102124.25;10587246;28;20036;-74
2022/10/08 14:44:44;;;;;;;0.00;0.00;;;;;;;16.15;96.23;102132.53;10587318;28;20491;-75
2022/10/08 14:49:46;;;;;;;0.17;0.00;;;;;;;15.18;95.80;102146.59;10554525;28;20139;-75
2022/10/08 14:54:47;;;;;;;0.00;0.00;;;;;;;15.06;100.00;102147.13;10568877;28;20393;-75
2022/10/08 14:59:49;;;;;;;0.00;0.00;;;;;;;14.91;100.00;102157.09;10587373;28;20050;-75
2022/10/08 15:04:53;;;;;;;0.00;0.00;;;;;;;14.84;100.00;102158.66;10567038;28;20221;-75
2022/10/08 15:09:55;;;;;;;0.73;0.40;;;;;;;14.53;100.00;102167.19;10586292;28;20130;-75
2022/10/08 15:14:56;;;;;;;0.00;0.00;;;;;;;14.41;100.00;102162.53;10586405;28;20047;-75
2022/10/08 15:19:58;;;;;;;0.25;0.13;;;;;;;14.39;100.00;102162.50;10585399;28;20123;-75
2022/10/08 15:24:59;;;;;;;0.00;0.00;;;;;;;14.40;100.00;102173.75;10585959;28;20368;-75
2022/10/08 15:30:01;;;;;;;3.88;0.35;;;;;;;14.08;100.00;102194.34;10585390;28;20097;-75
2022/10/08 15:35:03;;;;;;;0.20;0.00;;;;;;;14.12;100.00;102185.84;10593336;27;20395;-75
2022/10/08 15:40:05;;;;;;;0.20;0.10;;;;;;;14.75;100.00;102184.31;10585286;28;20455;-75
2022/10/08 15:45:07;;;;;;;0.00;0.00;;;;;;;14.66;100.00;102190.13;10610625;27;20055;-75
2022/10/08 15:50:09;;;;;;;0.00;0.00;;;;;;;14.40;100.00;102191.91;10585023;28;20123;-76
2022/10/08 15:55:10;;;;;;;0.00;0.00;;;;;;;14.21;100.00;102200.81;10586001;27;20044;-75
2022/10/08 16:00:12;;;;;;;0.00;0.00;;;;;;;14.08;100.00;102215.09;10583449;28;20118;-75
2022/10/08 16:05:14;;;;;;;0.00;0.00;;;;;;;14.01;100.00;102216.59;10566527;28;20075;-74
2022/10/08 16:10:15;;;;;;;0.00;0.00;;;;;;;14.03;100.00;102232.22;10566329;28;20375;-75
2022/10/08 16:15:17;;;;;;;0.00;0.00;;;;;;;14.04;100.00;102236.53;10565723;28;20058;-76
2022/10/08 16:20:19;;;;;;;0.80;0.75;;;;;;;13.89;100.00;102234.34;10583876;28;20089;-75
2022/10/08 16:25:20;;;;;;;0.80;0.10;;;;;;;13.46;100.00;102238.91;10565965;28;20395;-75
2022/10/08 16:30:21;;;;;;;0.00;0.00;;;;;;;13.39;100.00;102252.47;10583664;28;20502;-75
2022/10/08 16:35:26;;;;;;;0.00;0.00;;;;;;;13.23;100.00;102266.53;10584931;28;20086;-81
2022/10/08 16:40:28;;;;;;;0.00;0.00;;;;;;;12.89;100.00;102266.13;10584211;28;20043;-76
2022/10/08 16:45:34;;;;;;;0.00;0.00;;;;;;;12.79;100.00;102279.53;10583287;28;20054;-75
2022/10/08 16:50:40;;;;;;;0.00;0.00;;;;;;;12.56;100.00;102289.84;10564720;28;20043;-76
2022/10/08 16:55:43;;;;;;;0.17;0.10;;;;;;;12.61;100.00;102296.09;10613959;27;20501;-76
2022/10/08 17:00:44;;;;;;;0.65;0.20;;;;;;;12.42;100.00;102306.50;10606714;27;20050;-75
2022/10/08 17:05:46;;;;;;;0.00;0.00;;;;;;;12.23;100.00;102313.50;10625095;27;20082;-76
2022/10/08 17:10:48;;;;;;;0.52;0.00;;;;;;;12.05;100.00;102324.81;10625221;27;20043;-76
2022/10/08 17:15:58;;;;;;;0.00;0.00;;;;;;;11.74;100.00;102328.63;10625443;27;20051;-76
2022/10/08 17:21:01;;;;;;;0.00;0.00;;;;;;;11.33;100.00;102343.16;10547819;27;20037;-76
2022/10/08 17:26:05;;;;;;;0.00;0.00;;;;;;;11.35;100.00;102349.28;10537922;28;20048;-77
2022/10/08 17:31:09;;;;;;;1.35;0.95;;;;;;;10.98;100.00;102356.97;10539817;28;20039;-75
2022/10/08 17:36:17;;;;;;;0.00;0.00;;;;;;;10.60;100.00;102364.63;10541360;28;20052;-76
2022/10/08 17:41:21;;;;;;;0.00;0.00;;;;;;;10.37;100.00;102390.13;10540002;28;20071;-77
2022/10/08 17:46:25;;;;;;;0.00;0.00;;;;;;;10.12;100.00;102394.00;10539465;28;20040;-78
2022/10/08 17:51:28;;;;;;;0.30;0.20;;;;;;;10.09;100.00;102396.38;10540380;28;20479;-76
2022/10/08 17:56:30;;;;;;;2.05;0.38;;;;;;;10.08;100.00;102409.19;10538566;28;20044;-76
2022/10/08 18:01:36;;;;;;;0.08;0.08;;;;;;;9.88;100.00;102413.28;10539030;28;20498;-76
2022/10/08 18:06:46;;;;;;;0.90;0.28;;;;;;;9.64;100.00;102436.94;10555743;28;20043;-76
2022/10/08 18:11:50;;;;;;;1.08;0.47;;;;;;;9.42;100.00;102440.88;10582615;28;20200;-76
2022/10/08 18:16:52;;;;;;;0.00;0.00;;;;;;;9.50;100.00;102447.34;10581998;28;20057;-75
2022/10/08 18:21:54;;;;;;;0.32;0.15;;;;;;;9.45;100.00;102460.78;10562889;28;20078;-76
2022/10/08 18:26:57;;;;;;;0.32;0.32;;;;;;;9.59;100.00;102454.69;10590585;28;20040;-77
2022/10/08 18:31:59;;;;;;;0.28;0.03;;;;;;;9.21;100.00;102466.31;10597407;28;20047;-76
2022/10/08 18:37:00;;;;;;;0.20;0.10;;;;;;;9.03;100.00;102474.72;10596826;28;20047;-76
2022/10/08 18:42:02;;;;;;;0.10;0.10;;;;;;;9.11;100.00;102479.44;10573799;28;20138;-76
2022/10/08 18:47:04;;;;;;;0.00;0.00;;;;;;;9.01;100.00;102483.16;10588008;28;20561;-76
2022/10/08 18:52:06;;;;;;;0.10;0.10;;;;;;;8.96;100.00;102477.75;10587807;28;20509;-76
2022/10/08 18:57:08;;;;;;;0.98;0.63;;;;;;;8.84;100.00;102490.78;10587667;28;20051;-76
2022/10/08 19:02:10;;;;;;;0.00;0.00;;;;;;;8.96;100.00;102506.03;10569010;28;20095;-76
2022/10/08 19:07:12;;;;;;;0.00;0.00;;;;;;;8.95;100.00;102503.38;10586893;28;20089;-77
2022/10/08 19:12:14;;;;;;;0.10;0.08;;;;;;;8.89;100.00;102504.78;10551837;28;20047;-75
2022/10/08 19:17:16;;;;;;;0.52;0.10;;;;;;;8.87;100.00;102514.09;10568845;28;20056;-76
2022/10/08 19:22:23;;;;;;;0.45;0.17;;;;;;;8.81;100.00;102525.69;10568137;28;20047;-76
2022/10/08 19:27:28;;;;;;;1.10;0.68;;;;;;;8.75;100.00;102531.34;10579840;28;20051;-76
2022/10/08 19:32:30;;;;;;;0.10;0.10;;;;;;;8.38;100.00;102545.41;10551750;28;20050;-75
2022/10/08 19:37:35;;;;;;;0.00;0.00;;;;;;;8.42;100.00;102543.91;10586032;28;20055;-76
2022/10/08 19:42:39;;;;;;;0.13;0.10;;;;;;;8.32;100.00;102554.41;10585638;28;20032;-76
2022/10/08 19:47:48;;;;;;;0.03;0.03;;;;;;;8.31;100.00;102553.53;10535860;28;20071;-76
2022/10/08 19:52:50;;;;;;;0.13;0.10;;;;;;;8.25;100.00;102564.28;10538580;28;20589;-76
2022/10/08 19:57:53;;;;;;;0.32;0.20;;;;;;;8.07;100.00;102574.31;10551816;28;20411;-76
2022/10/08 20:02:56;;;;;;;0.15;0.13;;;;;;;8.08;100.00;102578.66;10583942;28;20036;-76
2022/10/08 20:07:58;;;;;;;0.00;0.00;;;;;;;7.68;100.00;102598.31;10567041;28;20043;-76
2022/10/08 20:13:02;;;;;;;0.17;0.17;;;;;;;7.74;100.00;102619.22;10584073;28;20143;-76
2022/10/08 20:18:03;;;;;;;0.00;0.00;;;;;;;7.86;100.00;102598.59;10573513;28;20048;-77
2022/10/08 20:23:05;;;;;;;0.00;0.00;;;;;;;7.87;100.00;102605.53;10553623;28;20052;-76
2022/10/08 20:28:10;;;;;;;0.10;0.10;;;;;;;7.70;100.00;102617.25;10566007;28;20399;-76
2022/10/08 20:33:14;;;;;;;0.47;0.25;;;;;;;7.61;100.00;102633.81;10565494;28;20044;-76
2022/10/08 20:38:22;;;;;;;0.10;0.00;;;;;;;7.76;100.00;102633.94;10564752;28;20143;-75
2022/10/08 20:43:34;;;;;;;0.17;0.10;;;;;;;7.57;100.00;102672.88;10565823;28;20039;-76
2022/10/08 20:48:50;;;;;;;0.22;0.05;;;;;;;7.34;100.00;102690.94;10566224;28;20039;-76
2022/10/08 20:53:54;;;;;;;0.03;0.03;;;;;;;7.20;100.00;102693.47;10562604;28;20512;-76
2022/10/08 20:58:56;;;;;;;0.40;0.28;;;;;;;7.18;100.00;102692.50;10541894;28;20052;-75
2022/10/08 21:03:59;;;;;;;0.03;0.00;;;;;;;7.08;100.00;102696.06;10577432;28;20079;-76
2022/10/08 21:09:01;;;;;;;0.00;0.00;;;;;;;7.16;100.00;102694.06;10557404;28;20048;-76
2022/10/08 21:14:03;;;;;;;0.17;0.10;;;;;;;7.16;100.00;102704.31;10582260;28;20064;-75
2022/10/08 21:19:10;;;;;;;0.38;0.10;;;;;;;6.85;100.00;102704.72;10580988;28;20031;-76
2022/10/08 21:24:15;;;;;;;0.20;0.20;;;;;;;6.62;100.00;102716.81;10564015;28;20039;-77
2022/10/08 21:29:17;;;;;;;0.05;0.03;;;;;;;6.79;100.00;102738.50;10582117;28;20044;-75
2022/10/08 21:34:19;;;;;;;0.10;0.10;;;;;;;6.87;100.00;102741.59;10560829;28;20073;-76
2022/10/08 21:39:23;;;;;;;0.57;0.10;;;;;;;6.85;100.00;102747.41;10538047;28;20418;-76
2022/10/08 21:44:25;;;;;;;0.00;0.00;;;;;;;6.58;100.00;102747.19;10537529;28;20071;-76
2022/10/08 21:49:29;;;;;;;0.00;0.00;;;;;;;6.77;100.00;102754.53;10566011;28;20545;-75
2022/10/08 21:54:30;;;;;;;1.10;0.60;;;;;;;6.25;100.00;102762.78;10555545;28;20111;-76
2022/10/08 21:59:32;;;;;;;0.45;0.13;;;;;;;6.19;100.00;102755.53;10562467;28;20051;-76
2022/10/08 22:04:33;;;;;;;0.75;0.65;;;;;;;5.85;100.00;102762.34;10580057;28;20059;-76
2022/10/08 22:09:35;;;;;;;2.10;0.43;;;;;;;6.30;100.00;102770.81;10580381;28;20400;-77
2022/10/08 22:14:37;;;;;;;0.88;0.57;;;;;;;5.67;100.00;102779.75;10582412;28;20046;-75
2022/10/08 22:19:38;;;;;;;0.10;0.10;;;;;;;5.85;100.00;102787.91;10574215;28;20050;-76
2022/10/08 22:24:40;;;;;;;1.08;0.35;;;;;;;5.56;100.00;102782.41;10562565;28;20046;-77
2022/10/08 22:29:41;;;;;;;0.10;0.10;;;;;;;5.64;100.00;102780.41;10588053;28;20512;-76
2022/10/08 22:34:43;;;;;;;0.63;0.32;;;;;;;5.71;100.00;102782.66;10581900;28;20063;-75
2022/10/08 22:39:44;;;;;;;0.10;0.10;;;;;;;5.42;100.00;102782.09;10571628;28;20035;-77
2022/10/08 22:44:46;;;;;;;0.40;0.30;;;;;;;5.72;100.00;102774.22;10587548;28;20131;-76
2022/10/08 22:49:47;;;;;;;0.45;0.28;;;;;;;5.60;100.00;102788.63;10578554;28;20086;-76
2022/10/08 22:54:49;;;;;;;0.63;0.50;;;;;;;5.52;100.00;102787.16;10572122;28;20074;-76
2022/10/08 22:59:51;;;;;;;0.00;0.00;;;;;;;5.53;100.00;102787.25;10586315;28;20078;-76
2022/10/08 23:04:52;;;;;;;1.23;0.45;;;;;;;5.43;100.00;102784.78;10572183;28;20524;-75
2022/10/08 23:09:54;;;;;;;0.28;0.20;;;;;;;5.23;100.00;102778.13;10585824;28;20046;-76
2022/10/08 23:14:55;;;;;;;0.77;0.60;;;;;;;5.39;100.00;102786.22;10568039;28;20111;-77
2022/10/08 23:19:57;;;;;;;0.98;0.35;;;;;;;5.29;100.00;102788.81;10585666;28;20075;-76
2022/10/08 23:24:58;;;;;;;0.47;0.22;;;;;;;5.24;100.00;102796.13;10584668;28;20118;-76
2022/10/08 23:30:00;;;;;;;0.20;0.15;;;;;;;5.29;100.00;102793.94;10576243;27;20052;-76
2022/10/08 23:35:02;;;;;;;0.75;0.57;;;;;;;5.26;100.00;102801.34;10580659;28;20047;-75